Terminal Aerodrome Forecast
Issued by NWS Cleveland, OH

Home | Current Version | Previous Version | Graphics & Text | Print | Product List | Glossary On
Versions: 1 2 3 4 5 6 7 8 9 10 11 12 13 14 15 16
413
FTUS41 KCLE 212335
TAFTOL
TAF
KTOL 212335Z 2200/2224 32015G25KT P6SM SCT200
     FM220300 35013G22KT P6SM SCT035
     FM221400 02009KT P6SM SKC
     FM222000 05007KT P6SM SCT250=

USA.gov is the U.S. government's official web portal to all federal, state and local government web resources and services.